Aeroporto :
LOGIN :

Iscrizione | Disclaimer

   EN    FR    IT 

 










Sommario :    VFR   VFR Marginale   IFR   IFR Intensivo   IFR Molto Intensivo
Visibilità : 
Base nubi : 
>= 8 km
>= 3000ft
5 / 8 km
1000 / 3000 ft
1500m / 5 km
500 / 1000 ft
800 / 1500m
200 / 500 ft
< 800m
< 200 ft
Simboli :   Temporali  Nebbia  Neve Forte  Precipitazioni Forti  Vento > 20 kt
SIGMETs :   Varie  Temporali  Ghiacco  Turbolenza  Onda orograficha  Ceneri Vulcaniche






- Altitudine del aeroporto : 2096 ft
- Codice IATA : AUR


LFLW - Aurillac

ULTIMO METAR :
  • 181530Z AUTO 15013KT 110V180 CAVOK 25/13 Q1017 BECMG 15016G28KT SCT060TCU

METARs OBSOLETI :
  • 181500Z AUTO 14014KT 110V180 CAVOK 25/13 Q1017 TEMPO 15023G36KT
  • 181430Z AUTO 16015G25KT 130V210 CAVOK 26/13 Q1017 TEMPO 15023G36KT
  • 181400Z AUTO 16016KT 120V200 CAVOK 27/13 Q1016 TEMPO 15023G36KT
  • 181330Z AUTO 15014G26KT 120V180 CAVOK 28/13 Q1016 TEMPO 15023G36KT
  • 181300Z AUTO 16015G26KT 130V200 CAVOK 28/13 Q1016 TEMPO 15023G36KT

TAF TAF LFLW
Valido dal 18 a 15 ore il 19 a 00 ore UTC


181400Z 1815/1824 15016G28KT CAVOK
TEMPO 1815/1817 15023G36KT
BECMG 1817/1819 SCT060TCU



MetMap, La meteo Aeronautica in un colpo d'occhio ! - Copyright ORBIFLY Dicembre 2007 - Disclaimer

ORBIFLY MET'MAP TEAM :

Programmazione e sviluppo : Alexandra Zaïnal
Concezione : Baudouin d'Aumeries
Aiuto per la programmazione : Marc-Olivier Méhu
Supporto tecnico e logistico : Manuel Goepfert
Aiuto per la traduzione : Arnaldo La Scala

Contatto : metmap@orbifly.com




FONTI E CREDITI :

   NOAA